sensor_id;sensor_type;location;lat;lon;timestamp;temperature;humidity
74178;DHT22;62540;48.456;-4.456;2023-05-29T00:00:29;15.69;71.29
74178;DHT22;62540;48.456;-4.456;2023-05-29T00:02:55;15.66;71.44
74178;DHT22;62540;48.456;-4.456;2023-05-29T00:05:20;15.64;71.46
74178;DHT22;62540;48.456;-4.456;2023-05-29T00:07:46;15.63;71.61
74178;DHT22;62540;48.456;-4.456;2023-05-29T00:10:11;15.57;71.80
74178;DHT22;62540;48.456;-4.456;2023-05-29T00:12:38;15.54;71.81
74178;DHT22;62540;48.456;-4.456;2023-05-29T00:15:04;15.53;72.20
74178;DHT22;62540;48.456;-4.456;2023-05-29T00:17:30;15.46;72.20
74178;DHT22;62540;48.456;-4.456;2023-05-29T00:19:59;15.46;72.47
74178;DHT22;62540;48.456;-4.456;2023-05-29T00:22:27;15.43;72.41
74178;DHT22;62540;48.456;-4.456;2023-05-29T00:24:52;15.43;72.38
74178;DHT22;62540;48.456;-4.456;2023-05-29T00:27:18;15.40;72.51
74178;DHT22;62540;48.456;-4.456;2023-05-29T00:29:45;15.39;72.18
74178;DHT22;62540;48.456;-4.456;2023-05-29T00:32:10;15.38;72.12
74178;DHT22;62540;48.456;-4.456;2023-05-29T00:34:36;15.38;71.95
74178;DHT22;62540;48.456;-4.456;2023-05-29T00:37:01;15.40;72.10
74178;DHT22;62540;48.456;-4.456;2023-05-29T00:39:27;15.39;71.96
74178;DHT22;62540;48.456;-4.456;2023-05-29T00:41:53;15.35;72.24
74178;DHT22;62540;48.456;-4.456;2023-05-29T00:44:18;15.36;72.00
74178;DHT22;62540;48.456;-4.456;2023-05-29T00:46:46;15.38;72.20
74178;DHT22;62540;48.456;-4.456;2023-05-29T00:49:12;15.38;71.98
74178;DHT22;62540;48.456;-4.456;2023-05-29T00:51:38;15.36;72.05
74178;DHT22;62540;48.456;-4.456;2023-05-29T00:54:06;15.36;72.02
74178;DHT22;62540;48.456;-4.456;2023-05-29T00:56:33;15.36;71.65
74178;DHT22;62540;48.456;-4.456;2023-05-29T00:59:00;15.36;71.40
74178;DHT22;62540;48.456;-4.456;2023-05-29T01:01:26;15.36;71.07
74178;DHT22;62540;48.456;-4.456;2023-05-29T01:03:55;15.35;70.78
74178;DHT22;62540;48.456;-4.456;2023-05-29T01:06:21;15.33;70.46
74178;DHT22;62540;48.456;-4.456;2023-05-29T01:08:46;15.31;70.27
74178;DHT22;62540;48.456;-4.456;2023-05-29T01:14:08;15.26;69.80
74178;DHT22;62540;48.456;-4.456;2023-05-29T01:16:50;15.28;69.52
74178;DHT22;62540;48.456;-4.456;2023-05-29T01:19:46;15.26;69.22
74178;DHT22;62540;48.456;-4.456;2023-05-29T01:25:21;15.19;68.75
74178;DHT22;62540;48.456;-4.456;2023-05-29T01:27:49;15.19;68.36
74178;DHT22;62540;48.456;-4.456;2023-05-29T01:30:15;15.21;68.37
74178;DHT22;62540;48.456;-4.456;2023-05-29T01:32:42;15.16;67.93
74178;DHT22;62540;48.456;-4.456;2023-05-29T01:35:08;15.16;67.79
74178;DHT22;62540;48.456;-4.456;2023-05-29T01:37:33;15.12;67.59
74178;DHT22;62540;48.456;-4.456;2023-05-29T01:39:59;15.12;67.55
74178;DHT22;62540;48.456;-4.456;2023-05-29T01:42:27;15.11;67.32
74178;DHT22;62540;48.456;-4.456;2023-05-29T01:44:54;15.09;67.17
74178;DHT22;62540;48.456;-4.456;2023-05-29T01:47:20;15.11;67.16
74178;DHT22;62540;48.456;-4.456;2023-05-29T01:49:47;15.09;66.88
74178;DHT22;62540;48.456;-4.456;2023-05-29T01:52:14;15.05;66.65
74178;DHT22;62540;48.456;-4.456;2023-05-29T01:54:39;15.05;66.54
74178;DHT22;62540;48.456;-4.456;2023-05-29T01:57:05;15.01;66.53
74178;DHT22;62540;48.456;-4.456;2023-05-29T01:59:32;14.97;66.54
74178;DHT22;62540;48.456;-4.456;2023-05-29T02:02:05;14.95;66.14
74178;DHT22;62540;48.456;-4.456;2023-05-29T02:04:31;14.92;66.02
74178;DHT22;62540;48.456;-4.456;2023-05-29T02:06:56;14.91;66.13
74178;DHT22;62540;48.456;-4.456;2023-05-29T02:09:21;14.88;66.22
74178;DHT22;62540;48.456;-4.456;2023-05-29T02:11:47;14.88;66.21
74178;DHT22;62540;48.456;-4.456;2023-05-29T02:14:13;14.87;66.20
74178;DHT22;62540;48.456;-4.456;2023-05-29T02:16:39;14.84;66.26
74178;DHT22;62540;48.456;-4.456;2023-05-29T02:19:06;14.83;66.31
74178;DHT22;62540;48.456;-4.456;2023-05-29T02:21:31;14.80;66.39
74178;DHT22;62540;48.456;-4.456;2023-05-29T02:23:57;14.80;66.44
74178;DHT22;62540;48.456;-4.456;2023-05-29T02:26:22;14.81;66.44
74178;DHT22;62540;48.456;-4.456;2023-05-29T02:28:48;14.80;66.63
74178;DHT22;62540;48.456;-4.456;2023-05-29T02:31:13;14.77;66.74
74178;DHT22;62540;48.456;-4.456;2023-05-29T02:33:38;14.73;66.93
74178;DHT22;62540;48.456;-4.456;2023-05-29T02:36:04;14.71;67.19
74178;DHT22;62540;48.456;-4.456;2023-05-29T02:38:29;14.68;67.45
74178;DHT22;62540;48.456;-4.456;2023-05-29T02:40:55;14.66;67.59
74178;DHT22;62540;48.456;-4.456;2023-05-29T02:43:21;14.66;67.74
74178;DHT22;62540;48.456;-4.456;2023-05-29T02:45:47;14.66;67.90
74178;DHT22;62540;48.456;-4.456;2023-05-29T02:48:12;14.63;68.13
74178;DHT22;62540;48.456;-4.456;2023-05-29T02:50:37;14.60;68.68
74178;DHT22;62540;48.456;-4.456;2023-05-29T02:53:03;14.53;69.49
74178;DHT22;62540;48.456;-4.456;2023-05-29T02:55:28;14.57;69.70
74178;DHT22;62540;48.456;-4.456;2023-05-29T02:57:54;14.56;70.11
74178;DHT22;62540;48.456;-4.456;2023-05-29T03:00:21;14.59;69.50
74178;DHT22;62540;48.456;-4.456;2023-05-29T03:02:46;14.59;70.22
74178;DHT22;62540;48.456;-4.456;2023-05-29T03:05:12;14.56;70.61
74178;DHT22;62540;48.456;-4.456;2023-05-29T03:07:37;14.54;71.10
74178;DHT22;62540;48.456;-4.456;2023-05-29T03:10:02;14.57;70.54
74178;DHT22;62540;48.456;-4.456;2023-05-29T03:12:29;14.54;71.25
74178;DHT22;62540;48.456;-4.456;2023-05-29T03:14:54;14.54;71.40
74178;DHT22;62540;48.456;-4.456;2023-05-29T03:17:21;14.53;72.25
74178;DHT22;62540;48.456;-4.456;2023-05-29T03:19:47;14.51;72.03
74178;DHT22;62540;48.456;-4.456;2023-05-29T03:22:12;14.54;72.31
74178;DHT22;62540;48.456;-4.456;2023-05-29T03:24:37;14.54;72.94
74178;DHT22;62540;48.456;-4.456;2023-05-29T03:27:03;14.53;72.76
74178;DHT22;62540;48.456;-4.456;2023-05-29T03:29:33;14.53;73.19
74178;DHT22;62540;48.456;-4.456;2023-05-29T03:31:59;14.51;73.00
74178;DHT22;62540;48.456;-4.456;2023-05-29T03:34:24;14.51;73.94
74178;DHT22;62540;48.456;-4.456;2023-05-29T03:36:50;14.53;73.94
74178;DHT22;62540;48.456;-4.456;2023-05-29T03:39:15;14.51;74.68
74178;DHT22;62540;48.456;-4.456;2023-05-29T03:41:41;14.54;74.39
74178;DHT22;62540;48.456;-4.456;2023-05-29T03:44:06;14.54;75.02
74178;DHT22;62540;48.456;-4.456;2023-05-29T03:46:32;14.53;75.27
74178;DHT22;62540;48.456;-4.456;2023-05-29T03:48:57;14.53;75.35
74178;DHT22;62540;48.456;-4.456;2023-05-29T03:51:23;14.56;75.12
74178;DHT22;62540;48.456;-4.456;2023-05-29T03:53:48;14.60;75.09
74178;DHT22;62540;48.456;-4.456;2023-05-29T03:56:13;14.59;74.85
74178;DHT22;62540;48.456;-4.456;2023-05-29T03:58:39;14.61;74.85
74178;DHT22;62540;48.456;-4.456;2023-05-29T04:01:04;14.59;75.42
74178;DHT22;62540;48.456;-4.456;2023-05-29T04:03:31;14.57;75.41
74178;DHT22;62540;48.456;-4.456;2023-05-29T04:05:56;14.63;75.15
74178;DHT22;62540;48.456;-4.456;2023-05-29T04:08:21;14.63;75.36
74178;DHT22;62540;48.456;-4.456;2023-05-29T04:10:47;14.63;75.18
74178;DHT22;62540;48.456;-4.456;2023-05-29T04:13:12;14.63;75.32
74178;DHT22;62540;48.456;-4.456;2023-05-29T04:15:38;14.60;75.81
74178;DHT22;62540;48.456;-4.456;2023-05-29T04:18:03;14.60;75.56
74178;DHT22;62540;48.456;-4.456;2023-05-29T04:20:29;14.61;75.51
74178;DHT22;62540;48.456;-4.456;2023-05-29T04:22:55;14.63;75.25
74178;DHT22;62540;48.456;-4.456;2023-05-29T04:25:20;14.66;75.53
74178;DHT22;62540;48.456;-4.456;2023-05-29T04:27:46;14.67;75.14
74178;DHT22;62540;48.456;-4.456;2023-05-29T04:30:15;14.64;75.30
74178;DHT22;62540;48.456;-4.456;2023-05-29T04:32:41;14.68;75.14
74178;DHT22;62540;48.456;-4.456;2023-05-29T04:35:06;14.67;74.81
74178;DHT22;62540;48.456;-4.456;2023-05-29T04:37:32;14.68;75.10
74178;DHT22;62540;48.456;-4.456;2023-05-29T04:40:04;14.63;75.48
74178;DHT22;62540;48.456;-4.456;2023-05-29T04:42:33;14.70;74.96
74178;DHT22;62540;48.456;-4.456;2023-05-29T04:45:00;14.67;74.94
74178;DHT22;62540;48.456;-4.456;2023-05-29T04:47:26;14.71;75.03
74178;DHT22;62540;48.456;-4.456;2023-05-29T04:49:51;14.68;75.04
74178;DHT22;62540;48.456;-4.456;2023-05-29T04:52:17;14.71;75.02
74178;DHT22;62540;48.456;-4.456;2023-05-29T04:54:42;14.73;74.96
74178;DHT22;62540;48.456;-4.456;2023-05-29T04:57:08;14.75;74.84
74178;DHT22;62540;48.456;-4.456;2023-05-29T04:59:34;14.75;75.05
74178;DHT22;62540;48.456;-4.456;2023-05-29T05:02:00;14.77;75.03
74178;DHT22;62540;48.456;-4.456;2023-05-29T05:04:25;14.83;74.65
74178;DHT22;62540;48.456;-4.456;2023-05-29T05:06:50;14.89;74.66
74178;DHT22;62540;48.456;-4.456;2023-05-29T05:09:16;14.91;74.59
74178;DHT22;62540;48.456;-4.456;2023-05-29T05:11:42;14.95;74.48
74178;DHT22;62540;48.456;-4.456;2023-05-29T05:14:08;15.04;74.19
74178;DHT22;62540;48.456;-4.456;2023-05-29T05:16:33;15.11;74.11
74178;DHT22;62540;48.456;-4.456;2023-05-29T05:18:59;15.19;73.88
74178;DHT22;62540;48.456;-4.456;2023-05-29T05:21:24;15.31;73.68
74178;DHT22;62540;48.456;-4.456;2023-05-29T05:23:50;15.36;73.43
74178;DHT22;62540;48.456;-4.456;2023-05-29T05:26:15;15.50;73.28
74178;DHT22;62540;48.456;-4.456;2023-05-29T05:28:40;15.62;72.95
74178;DHT22;62540;48.456;-4.456;2023-05-29T05:31:06;15.74;72.71
74178;DHT22;62540;48.456;-4.456;2023-05-29T05:33:32;15.90;72.22
74178;DHT22;62540;48.456;-4.456;2023-05-29T05:35:58;15.98;71.89
74178;DHT22;62540;48.456;-4.456;2023-05-29T05:38:23;16.14;71.64
74178;DHT22;62540;48.456;-4.456;2023-05-29T05:40:48;16.25;71.41
74178;DHT22;62540;48.456;-4.456;2023-05-29T05:43:14;16.44;70.96
74178;DHT22;62540;48.456;-4.456;2023-05-29T05:45:39;16.53;70.78
74178;DHT22;62540;48.456;-4.456;2023-05-29T05:48:07;16.68;70.16
74178;DHT22;62540;48.456;-4.456;2023-05-29T05:50:33;16.79;69.11
74178;DHT22;62540;48.456;-4.456;2023-05-29T05:52:58;16.82;68.87
74178;DHT22;62540;48.456;-4.456;2023-05-29T05:55:24;16.96;68.73
74178;DHT22;62540;48.456;-4.456;2023-05-29T05:57:51;16.96;68.32
74178;DHT22;62540;48.456;-4.456;2023-05-29T06:00:17;17.03;68.21
74178;DHT22;62540;48.456;-4.456;2023-05-29T06:02:42;17.14;68.07
74178;DHT22;62540;48.456;-4.456;2023-05-29T06:05:10;17.26;67.50
74178;DHT22;62540;48.456;-4.456;2023-05-29T06:07:36;17.37;67.39
74178;DHT22;62540;48.456;-4.456;2023-05-29T06:10:03;17.48;66.91
74178;DHT22;62540;48.456;-4.456;2023-05-29T06:12:29;17.51;66.46
74178;DHT22;62540;48.456;-4.456;2023-05-29T06:14:54;17.55;66.49
74178;DHT22;62540;48.456;-4.456;2023-05-29T06:17:20;17.64;66.18
74178;DHT22;62540;48.456;-4.456;2023-05-29T06:19:46;17.62;65.94
74178;DHT22;62540;48.456;-4.456;2023-05-29T06:22:13;17.67;65.52
74178;DHT22;62540;48.456;-4.456;2023-05-29T06:24:39;17.79;65.36
74178;DHT22;62540;48.456;-4.456;2023-05-29T06:27:04;17.83;65.15
74178;DHT22;62540;48.456;-4.456;2023-05-29T06:29:30;17.89;64.90
74178;DHT22;62540;48.456;-4.456;2023-05-29T06:31:55;17.96;64.81
74178;DHT22;62540;48.456;-4.456;2023-05-29T06:34:20;18.03;64.50
74178;DHT22;62540;48.456;-4.456;2023-05-29T06:36:46;18.09;64.27
74178;DHT22;62540;48.456;-4.456;2023-05-29T06:39:13;18.06;63.85
74178;DHT22;62540;48.456;-4.456;2023-05-29T06:41:39;18.10;64.02
74178;DHT22;62540;48.456;-4.456;2023-05-29T06:44:04;17.99;63.65
74178;DHT22;62540;48.456;-4.456;2023-05-29T06:46:30;18.02;63.64
74178;DHT22;62540;48.456;-4.456;2023-05-29T06:48:55;18.12;63.58
74178;DHT22;62540;48.456;-4.456;2023-05-29T06:51:21;18.27;63.25
74178;DHT22;62540;48.456;-4.456;2023-05-29T06:53:46;18.44;62.73
74178;DHT22;62540;48.456;-4.456;2023-05-29T06:56:12;18.56;62.61
74178;DHT22;62540;48.456;-4.456;2023-05-29T06:58:37;18.68;62.19
74178;DHT22;62540;48.456;-4.456;2023-05-29T07:01:03;18.71;61.85
74178;DHT22;62540;48.456;-4.456;2023-05-29T07:03:28;18.77;61.79
74178;DHT22;62540;48.456;-4.456;2023-05-29T07:05:54;18.88;61.65
74178;DHT22;62540;48.456;-4.456;2023-05-29T07:08:20;19.04;61.20
74178;DHT22;62540;48.456;-4.456;2023-05-29T07:10:46;19.08;60.74
74178;DHT22;62540;48.456;-4.456;2023-05-29T07:13:15;19.08;60.85
74178;DHT22;62540;48.456;-4.456;2023-05-29T07:15:41;19.20;60.68
74178;DHT22;62540;48.456;-4.456;2023-05-29T07:18:06;19.29;59.95
74178;DHT22;62540;48.456;-4.456;2023-05-29T07:20:32;19.29;59.78
74178;DHT22;62540;48.456;-4.456;2023-05-29T07:22:57;19.36;59.83
74178;DHT22;62540;48.456;-4.456;2023-05-29T07:25:23;19.59;59.82
74178;DHT22;62540;48.456;-4.456;2023-05-29T07:27:48;19.81;59.41
74178;DHT22;62540;48.456;-4.456;2023-05-29T07:30:14;19.83;58.33
74178;DHT22;62540;48.456;-4.456;2023-05-29T07:32:39;19.81;58.46
74178;DHT22;62540;48.456;-4.456;2023-05-29T07:35:05;19.81;58.59
74178;DHT22;62540;48.456;-4.456;2023-05-29T07:37:30;19.84;58.47
74178;DHT22;62540;48.456;-4.456;2023-05-29T07:39:56;19.81;58.37
74178;DHT22;62540;48.456;-4.456;2023-05-29T07:42:22;19.94;58.32
74178;DHT22;62540;48.456;-4.456;2023-05-29T07:44:47;20.02;57.95
74178;DHT22;62540;48.456;-4.456;2023-05-29T07:47:14;20.28;58.16
74178;DHT22;62540;48.456;-4.456;2023-05-29T07:49:39;20.66;57.72
74178;DHT22;62540;48.456;-4.456;2023-05-29T07:52:05;20.91;56.63
74178;DHT22;62540;48.456;-4.456;2023-05-29T07:54:31;21.10;56.25
74178;DHT22;62540;48.456;-4.456;2023-05-29T07:57:01;21.27;55.48
74178;DHT22;62540;48.456;-4.456;2023-05-29T07:59:34;21.31;54.76
74178;DHT22;62540;48.456;-4.456;2023-05-29T08:02:00;21.23;54.73
74178;DHT22;62540;48.456;-4.456;2023-05-29T08:04:28;21.34;54.64
74178;DHT22;62540;48.456;-4.456;2023-05-29T08:06:54;21.12;54.94
74178;DHT22;62540;48.456;-4.456;2023-05-29T08:09:20;21.27;55.29
74178;DHT22;62540;48.456;-4.456;2023-05-29T08:11:46;21.54;54.54
74178;DHT22;62540;48.456;-4.456;2023-05-29T08:14:13;21.48;53.79
74178;DHT22;62540;48.456;-4.456;2023-05-29T08:16:38;21.55;54.55
74178;DHT22;62540;48.456;-4.456;2023-05-29T08:19:04;21.68;53.68
74178;DHT22;62540;48.456;-4.456;2023-05-29T08:21:32;21.62;53.70
74178;DHT22;62540;48.456;-4.456;2023-05-29T08:23:58;21.59;53.68
74178;DHT22;62540;48.456;-4.456;2023-05-29T08:26:24;21.59;53.66
74178;DHT22;62540;48.456;-4.456;2023-05-29T08:28:49;21.65;53.72
74178;DHT22;62540;48.456;-4.456;2023-05-29T08:31:15;21.61;53.21
74178;DHT22;62540;48.456;-4.456;2023-05-29T08:33:41;21.57;53.34
74178;DHT22;62540;48.456;-4.456;2023-05-29T08:36:06;21.47;53.50
74178;DHT22;62540;48.456;-4.456;2023-05-29T08:38:31;21.38;53.93
74178;DHT22;62540;48.456;-4.456;2023-05-29T08:40:57;21.31;54.28
74178;DHT22;62540;48.456;-4.456;2023-05-29T08:43:32;21.41;54.00
74178;DHT22;62540;48.456;-4.456;2023-05-29T08:46:01;21.54;53.95
74178;DHT22;62540;48.456;-4.456;2023-05-29T08:48:29;21.63;53.66
74178;DHT22;62540;48.456;-4.456;2023-05-29T08:50:56;21.65;53.26
74178;DHT22;62540;48.456;-4.456;2023-05-29T08:53:22;21.69;53.52
74178;DHT22;62540;48.456;-4.456;2023-05-29T08:55:48;21.78;54.04
74178;DHT22;62540;48.456;-4.456;2023-05-29T08:58:17;21.92;53.55
74178;DHT22;62540;48.456;-4.456;2023-05-29T09:00:44;22.10;52.99
74178;DHT22;62540;48.456;-4.456;2023-05-29T09:03:10;22.23;53.16
74178;DHT22;62540;48.456;-4.456;2023-05-29T09:05:38;22.50;52.68
74178;DHT22;62540;48.456;-4.456;2023-05-29T09:08:08;22.67;52.33
74178;DHT22;62540;48.456;-4.456;2023-05-29T09:10:34;22.78;51.71
74178;DHT22;62540;48.456;-4.456;2023-05-29T09:12:59;22.79;51.24
74178;DHT22;62540;48.456;-4.456;2023-05-29T09:15:25;22.75;51.83
74178;DHT22;62540;48.456;-4.456;2023-05-29T09:17:57;22.79;51.87
74178;DHT22;62540;48.456;-4.456;2023-05-29T09:20:23;22.82;51.43
74178;DHT22;62540;48.456;-4.456;2023-05-29T09:23:01;23.03;52.04
74178;DHT22;62540;48.456;-4.456;2023-05-29T09:25:28;23.23;51.66
74178;DHT22;62540;48.456;-4.456;2023-05-29T09:28:01;23.39;51.70
74178;DHT22;62540;48.456;-4.456;2023-05-29T09:30:41;23.45;50.88
74178;DHT22;62540;48.456;-4.456;2023-05-29T09:33:08;23.53;51.13
74178;DHT22;62540;48.456;-4.456;2023-05-29T09:37:59;23.81;50.28
74178;DHT22;62540;48.456;-4.456;2023-05-29T09:40:25;23.78;50.11
74178;DHT22;62540;48.456;-4.456;2023-05-29T09:42:50;23.77;49.65
74178;DHT22;62540;48.456;-4.456;2023-05-29T09:45:20;23.78;49.95
74178;DHT22;62540;48.456;-4.456;2023-05-29T09:47:47;23.69;49.55
74178;DHT22;62540;48.456;-4.456;2023-05-29T09:50:18;23.64;49.98
74178;DHT22;62540;48.456;-4.456;2023-05-29T09:52:45;23.63;50.31
74178;DHT22;62540;48.456;-4.456;2023-05-29T09:55:15;23.57;50.28
74178;DHT22;62540;48.456;-4.456;2023-05-29T09:57:46;23.49;50.25
74178;DHT22;62540;48.456;-4.456;2023-05-29T10:00:12;23.50;50.33
74178;DHT22;62540;48.456;-4.456;2023-05-29T10:02:38;23.49;50.31
74178;DHT22;62540;48.456;-4.456;2023-05-29T10:05:06;23.52;50.56
74178;DHT22;62540;48.456;-4.456;2023-05-29T10:07:35;23.57;50.21
74178;DHT22;62540;48.456;-4.456;2023-05-29T10:10:05;23.63;50.73
74178;DHT22;62540;48.456;-4.456;2023-05-29T10:12:36;23.60;50.76
74178;DHT22;62540;48.456;-4.456;2023-05-29T10:15:06;23.60;50.38
74178;DHT22;62540;48.456;-4.456;2023-05-29T10:17:36;23.60;50.56
74178;DHT22;62540;48.456;-4.456;2023-05-29T10:20:05;23.61;50.92
74178;DHT22;62540;48.456;-4.456;2023-05-29T10:22:32;23.64;50.34
74178;DHT22;62540;48.456;-4.456;2023-05-29T10:24:59;23.57;50.11
74178;DHT22;62540;48.456;-4.456;2023-05-29T10:27:26;23.47;50.21
74178;DHT22;62540;48.456;-4.456;2023-05-29T10:30:02;23.40;50.52
74178;DHT22;62540;48.456;-4.456;2023-05-29T10:32:36;23.27;50.35
74178;DHT22;62540;48.456;-4.456;2023-05-29T10:35:20;23.18;50.13
74178;DHT22;62540;48.456;-4.456;2023-05-29T10:38:01;22.98;50.92
74178;DHT22;62540;48.456;-4.456;2023-05-29T10:40:28;22.94;51.21
74178;DHT22;62540;48.456;-4.456;2023-05-29T10:42:53;22.96;51.15
74178;DHT22;62540;48.456;-4.456;2023-05-29T10:50:36;23.33;50.70
74178;DHT22;62540;48.456;-4.456;2023-05-29T10:53:02;23.20;51.15
74178;DHT22;62540;48.456;-4.456;2023-05-29T10:55:34;23.20;51.34
74178;DHT22;62540;48.456;-4.456;2023-05-29T10:58:21;23.18;51.49
74178;DHT22;62540;48.456;-4.456;2023-05-29T11:00:48;23.20;51.41
74178;DHT22;62540;48.456;-4.456;2023-05-29T11:03:15;23.09;51.98
74178;DHT22;62540;48.456;-4.456;2023-05-29T11:06:00;23.12;51.77
74178;DHT22;62540;48.456;-4.456;2023-05-29T11:11:02;23.38;51.84
74178;DHT22;62540;48.456;-4.456;2023-05-29T11:13:35;23.30;51.24
74178;DHT22;62540;48.456;-4.456;2023-05-29T11:18:54;23.13;52.36
74178;DHT22;62540;48.456;-4.456;2023-05-29T11:24:02;23.06;51.98
74178;DHT22;62540;48.456;-4.456;2023-05-29T11:26:29;23.19;52.03
74178;DHT22;62540;48.456;-4.456;2023-05-29T11:29:03;23.26;51.89
74178;DHT22;62540;48.456;-4.456;2023-05-29T11:31:35;23.23;51.67
74178;DHT22;62540;48.456;-4.456;2023-05-29T11:34:02;23.11;51.54
74178;DHT22;62540;48.456;-4.456;2023-05-29T11:36:32;23.09;51.99
74178;DHT22;62540;48.456;-4.456;2023-05-29T11:38:58;23.02;51.89
74178;DHT22;62540;48.456;-4.456;2023-05-29T11:41:23;22.98;52.12
74178;DHT22;62540;48.456;-4.456;2023-05-29T11:43:58;22.94;52.12
74178;DHT22;62540;48.456;-4.456;2023-05-29T11:46:24;22.82;52.10
74178;DHT22;62540;48.456;-4.456;2023-05-29T11:48:51;22.72;52.55
74178;DHT22;62540;48.456;-4.456;2023-05-29T11:51:17;22.61;52.32
74178;DHT22;62540;48.456;-4.456;2023-05-29T11:53:45;22.54;52.65
74178;DHT22;62540;48.456;-4.456;2023-05-29T11:56:11;22.61;53.44
74178;DHT22;62540;48.456;-4.456;2023-05-29T11:58:38;22.78;52.83
74178;DHT22;62540;48.456;-4.456;2023-05-29T12:01:04;22.91;52.96
74178;DHT22;62540;48.456;-4.456;2023-05-29T12:03:30;22.91;52.56
74178;DHT22;62540;48.456;-4.456;2023-05-29T12:05:55;22.78;52.93
74178;DHT22;62540;48.456;-4.456;2023-05-29T12:08:24;22.68;53.17
74178;DHT22;62540;48.456;-4.456;2023-05-29T12:10:51;22.71;53.10
74178;DHT22;62540;48.456;-4.456;2023-05-29T12:13:20;22.57;52.99
74178;DHT22;62540;48.456;-4.456;2023-05-29T12:15:48;22.67;53.11
74178;DHT22;62540;48.456;-4.456;2023-05-29T12:18:14;22.78;53.07
74178;DHT22;62540;48.456;-4.456;2023-05-29T12:20:40;22.85;53.07
74178;DHT22;62540;48.456;-4.456;2023-05-29T12:23:05;22.92;52.65
74178;DHT22;62540;48.456;-4.456;2023-05-29T12:25:33;22.84;52.51
74178;DHT22;62540;48.456;-4.456;2023-05-29T12:28:00;22.76;52.84
74178;DHT22;62540;48.456;-4.456;2023-05-29T12:30:25;22.71;52.57
74178;DHT22;62540;48.456;-4.456;2023-05-29T12:32:52;22.63;52.97
74178;DHT22;62540;48.456;-4.456;2023-05-29T12:35:19;22.57;53.14
74178;DHT22;62540;48.456;-4.456;2023-05-29T12:37:59;22.58;53.41
74178;DHT22;62540;48.456;-4.456;2023-05-29T12:40:29;22.58;53.69
74178;DHT22;62540;48.456;-4.456;2023-05-29T12:43:03;22.40;53.30
74178;DHT22;62540;48.456;-4.456;2023-05-29T12:45:30;22.29;53.50
74178;DHT22;62540;48.456;-4.456;2023-05-29T12:50:29;22.43;53.76
74178;DHT22;62540;48.456;-4.456;2023-05-29T12:53:03;22.43;53.81
74178;DHT22;62540;48.456;-4.456;2023-05-29T12:55:31;22.34;54.15
74178;DHT22;62540;48.456;-4.456;2023-05-29T12:58:04;22.33;54.03
74178;DHT22;62540;48.456;-4.456;2023-05-29T13:00:30;22.36;54.11
74178;DHT22;62540;48.456;-4.456;2023-05-29T13:02:56;22.34;53.74
74178;DHT22;62540;48.456;-4.456;2023-05-29T13:05:22;22.16;54.04
74178;DHT22;62540;48.456;-4.456;2023-05-29T13:07:51;22.06;54.58
74178;DHT22;62540;48.456;-4.456;2023-05-29T13:10:17;22.07;55.26
74178;DHT22;62540;48.456;-4.456;2023-05-29T13:12:43;22.20;55.24
74178;DHT22;62540;48.456;-4.456;2023-05-29T13:15:10;22.29;54.63
74178;DHT22;62540;48.456;-4.456;2023-05-29T13:17:36;22.21;54.25
74178;DHT22;62540;48.456;-4.456;2023-05-29T13:20:01;22.18;55.09
74178;DHT22;62540;48.456;-4.456;2023-05-29T13:22:27;22.24;55.09
74178;DHT22;62540;48.456;-4.456;2023-05-29T13:24:59;22.20;54.13
74178;DHT22;62540;48.456;-4.456;2023-05-29T13:27:26;22.14;54.55
74178;DHT22;62540;48.456;-4.456;2023-05-29T13:29:52;22.05;55.09
74178;DHT22;62540;48.456;-4.456;2023-05-29T13:32:17;21.96;55.88
74178;DHT22;62540;48.456;-4.456;2023-05-29T13:34:43;21.97;55.47
74178;DHT22;62540;48.456;-4.456;2023-05-29T13:37:08;22.03;55.42
74178;DHT22;62540;48.456;-4.456;2023-05-29T13:39:34;22.06;54.91
74178;DHT22;62540;48.456;-4.456;2023-05-29T13:41:59;21.96;55.47
74178;DHT22;62540;48.456;-4.456;2023-05-29T13:44:25;21.93;55.76
74178;DHT22;62540;48.456;-4.456;2023-05-29T13:46:51;21.76;55.34
74178;DHT22;62540;48.456;-4.456;2023-05-29T13:49:16;21.68;55.75
74178;DHT22;62540;48.456;-4.456;2023-05-29T13:51:42;21.69;56.22
74178;DHT22;62540;48.456;-4.456;2023-05-29T13:54:07;21.63;56.43
74178;DHT22;62540;48.456;-4.456;2023-05-29T13:56:32;21.61;56.30
74178;DHT22;62540;48.456;-4.456;2023-05-29T13:58:58;21.49;56.35
74178;DHT22;62540;48.456;-4.456;2023-05-29T14:01:30;21.30;56.63
74178;DHT22;62540;48.456;-4.456;2023-05-29T14:03:55;21.31;56.64
74178;DHT22;62540;48.456;-4.456;2023-05-29T14:06:21;21.23;57.27
74178;DHT22;62540;48.456;-4.456;2023-05-29T14:08:46;21.12;56.80
74178;DHT22;62540;48.456;-4.456;2023-05-29T14:11:12;21.04;57.67
74178;DHT22;62540;48.456;-4.456;2023-05-29T14:13:37;20.97;57.84
74178;DHT22;62540;48.456;-4.456;2023-05-29T14:16:02;20.91;58.06
74178;DHT22;62540;48.456;-4.456;2023-05-29T14:18:28;20.79;58.01
74178;DHT22;62540;48.456;-4.456;2023-05-29T14:20:53;20.62;58.53
74178;DHT22;62540;48.456;-4.456;2023-05-29T14:23:19;20.45;58.62
74178;DHT22;62540;48.456;-4.456;2023-05-29T14:25:44;20.49;59.05
74178;DHT22;62540;48.456;-4.456;2023-05-29T14:28:10;20.53;59.20
74178;DHT22;62540;48.456;-4.456;2023-05-29T14:30:36;20.56;59.65
74178;DHT22;62540;48.456;-4.456;2023-05-29T14:33:02;20.65;59.18
74178;DHT22;62540;48.456;-4.456;2023-05-29T14:35:28;20.59;58.18
74178;DHT22;62540;48.456;-4.456;2023-05-29T14:37:53;20.45;58.47
74178;DHT22;62540;48.456;-4.456;2023-05-29T14:40:19;20.43;59.46
74178;DHT22;62540;48.456;-4.456;2023-05-29T14:42:44;20.43;59.89
74178;DHT22;62540;48.456;-4.456;2023-05-29T14:45:09;20.48;58.72
74178;DHT22;62540;48.456;-4.456;2023-05-29T14:47:35;20.36;59.16
74178;DHT22;62540;48.456;-4.456;2023-05-29T14:50:01;20.25;59.33
74178;DHT22;62540;48.456;-4.456;2023-05-29T14:52:26;20.14;59.59
74178;DHT22;62540;48.456;-4.456;2023-05-29T14:54:52;20.11;60.25
74178;DHT22;62540;48.456;-4.456;2023-05-29T14:57:17;20.12;60.77
74178;DHT22;62540;48.456;-4.456;2023-05-29T14:59:43;20.14;59.69
74178;DHT22;62540;48.456;-4.456;2023-05-29T15:02:08;20.10;59.64
74178;DHT22;62540;48.456;-4.456;2023-05-29T15:04:35;19.97;60.09
74178;DHT22;62540;48.456;-4.456;2023-05-29T15:07:00;19.95;60.19
74178;DHT22;62540;48.456;-4.456;2023-05-29T15:09:26;19.91;60.04
74178;DHT22;62540;48.456;-4.456;2023-05-29T15:11:51;19.85;60.31
74178;DHT22;62540;48.456;-4.456;2023-05-29T15:14:17;19.75;60.77
74178;DHT22;62540;48.456;-4.456;2023-05-29T15:16:43;19.73;60.87
74178;DHT22;62540;48.456;-4.456;2023-05-29T15:19:09;19.63;60.86
74178;DHT22;62540;48.456;-4.456;2023-05-29T15:21:34;19.63;60.91
74178;DHT22;62540;48.456;-4.456;2023-05-29T15:23:59;19.60;61.14
74178;DHT22;62540;48.456;-4.456;2023-05-29T15:26:25;19.57;61.06
74178;DHT22;62540;48.456;-4.456;2023-05-29T15:28:51;19.56;61.63
74178;DHT22;62540;48.456;-4.456;2023-05-29T15:31:17;19.63;61.34
74178;DHT22;62540;48.456;-4.456;2023-05-29T15:33:43;19.60;61.14
74178;DHT22;62540;48.456;-4.456;2023-05-29T15:36:09;19.57;61.27